Latest Coastal Weather Observations for St Lawrence

IDQ60701

Issued at 7:35 am EST Tuesday 25 November 2014 (issued every 10 minutes, with the page automatically refreshed every 10 minutes)

About coastal observations | Map of coastal stations | Coastal observations for QLD | Marine services | Other Formats
Station Details ID: 033210 Name: ST LAWRENCE Lat: -22.35 Lon: 149.52 Height: 9.19 m
Data from the previous 72 hours. | See also: Recent months at St Lawrence
Date/Time
EST
Temp

°C
Wind Pressure Rain
since 9am
mm
Weather Cloud Vis
km
Sea
Height
m
Swell
Dir
 
Speed
knots
Gust
knots
hPa Trend Height
m
Period
s
Dir
25/07:30am 27.0 ENE 7 11 1014.6 - 0.0 - - - - - - -
25/07:00am 26.8 SE 5 9 1014.4 - 0.0 - - - - - - -
25/06:30am 24.1 S 4 6 1014.2 - 0.0 - - - - - - -
25/06:00am 23.1 SSE 4 5 1013.8 - 0.0 - - - - - - -
25/05:30am 22.3 S 4 4 1013.6 - 0.0 - - - - - - -
25/05:00am 22.2 S 4 5 1013.2 - 0.0 - - - - - - -
25/04:30am 22.9 CALM 0 0 1013.0 - 0.0 - - - - - - -
25/04:00am 23.2 E 1 4 1012.8 - 0.0 - - - - - - -
25/03:30am 23.1 SSE 4 5 1012.9 - 0.0 - - - - - - -
25/03:00am 23.3 SSE 4 5 1012.9 - 0.0 - - - - - - -
25/02:30am 23.9 SSW 3 5 1012.9 - 0.0 - - - - - - -
25/02:00am 25.0 NNE 4 7 1013.0 - 0.0 - - - - - - -
25/01:30am 25.2 NE 7 10 1013.0 - 0.0 - - - - - - -
25/01:00am 24.8 NE 5 7 1013.2 - 0.0 - - - - - - -
25/12:30am 24.8 ENE 5 7 1013.6 - 0.0 - - - - - - -
25/12:00am 25.1 NE 6 9 1014.0 - 0.0 - - - - - - -
 
Date/Time
EST
Temp

°C
Wind Pressure Rain
since 9am
mm
Weather Cloud Vis
km
Sea
Height
m
Swell
Dir
 
Speed
knots
Gust
knots
hPa Trend Height
m
Period
s
Dir
24/11:30pm 25.3 NE 8 11 1014.2 - 0.0 - - - - - - -
24/11:00pm 25.5 NE 8 10 1014.5 - 0.0 - - - - - - -
24/10:30pm 25.6 NE 8 11 1014.7 - 0.0 - - - - - - -
24/10:00pm 25.6 NE 6 9 1014.7 - 0.0 - - - - - - -
24/09:30pm 25.5 NE 6 8 1014.7 - 0.0 - - - - - - -
24/09:00pm 25.5 NE 8 10 1014.4 - 0.0 - - - - - - -
24/08:30pm 25.6 NE 8 11 1014.1 - 0.0 - - - - - - -
24/08:00pm 25.6 NE 8 11 1013.7 - 0.0 - - - - - - -
24/07:30pm 25.8 NE 8 13 1013.4 - 0.0 - - - - - - -
24/07:00pm 26.1 NE 9 13 1013.2 - 0.0 - - - - - - -
24/06:30pm 26.3 NE 10 13 1013.0 - 0.0 - - - - - - -
24/06:00pm 26.9 NE 11 17 1012.6 - 0.0 - - - - - - -
24/05:30pm 27.5 NNE 12 17 1012.2 - 0.0 - - - - - - -
24/05:00pm 28.0 NNE 13 17 1012.0 - 0.0 - - - - - - -
24/04:30pm 28.1 NE 13 18 1011.8 - 0.0 - - - - - - -
24/04:00pm 28.4 NNE 14 20 1012.1 - 0.0 - - - - - - -
24/03:30pm 28.8 NNE 14 20 1012.0 - 0.0 - - - - - - -
24/03:00pm 28.9 NNE 14 19 1012.3 - 0.0 - - - - - - -
24/02:30pm 29.6 NE 13 18 1012.6 - 0.0 - - - - - - -
24/02:00pm 29.4 NE 13 18 1012.9 - 0.0 - - - - - - -
24/01:30pm 30.0 NNE 14 18 1013.4 - 0.0 - - - - - - -
24/01:00pm 29.7 NNE 14 18 1013.7 - 0.0 - - - - - - -
24/12:30pm 30.2 NNE 14 18 1014.0 - 0.0 - - - - - - -
24/12:00pm 29.7 NE 12 17 1014.5 - 0.0 - - - - - - -
24/11:30am 29.4 NE 12 17 1014.9 - 0.0 - - - - - - -
24/11:00am 30.0 NE 11 16 1015.3 - 0.0 - - - - - - -
24/10:30am 29.5 NE 10 14 1015.5 - 0.0 - - - - - - -
24/10:00am 29.9 NE 9 13 1015.7 - 0.0 - - - - - - -
24/09:30am 28.6 NNE 10 14 1015.8 - 0.0 - - - - - - -
24/09:00am 28.3 NE 10 15 1016.0 - 0.8 - - - - - - -
24/08:30am 28.1 NE 11 14 1015.9 - 0.8 - - - - - - -
24/08:00am 26.9 E 6 10 1015.9 - 0.8 - - - - - - -
24/07:30am 26.0 S 4 6 1015.8 - 0.8 - - - - - - -
24/07:00am 24.4 SSW 4 6 1015.9 - 0.8 - - - - - - -
24/06:30am 23.4 S 5 7 1015.6 - 0.8 - - - - - - -
24/06:00am 22.4 S 5 8 1015.3 - 0.8 - - - - - - -
24/05:30am 21.9 S 4 6 1015.0 - 0.8 - - - - - - -
24/05:00am 22.3 S 3 6 1014.8 - 0.8 - - - - - - -
24/04:30am 22.4 SSE 6 8 1014.4 - 0.8 - - - - - - -
24/04:00am 22.8 S 4 6 1014.3 - 0.0 - - - - - - -
24/03:30am 22.9 S 3 5 1014.2 - 0.0 - - - - - - -
24/03:00am 23.0 W 3 4 1014.1 - 0.0 - - - - - - -
24/02:30am 24.5 NE 3 5 1014.2 - 0.0 - - - - - - -
24/02:00am 25.0 NNE 5 7 1014.3 - 0.0 - - - - - - -
24/01:30am 25.1 NNE 6 8 1014.5 - 0.0 - - - - - - -
24/01:00am 25.2 NNE 7 9 1014.8 - 0.0 - - - - - - -
24/12:30am 25.2 NE 6 9 1015.0 - 0.0 - - - - - - -
24/12:00am 24.8 ENE 5 9 1015.2 - 0.0 - - - - - - -
 
Date/Time
EST
Temp

°C
Wind Pressure Rain
since 9am
mm
Weather Cloud Vis
km
Sea
Height
m
Swell
Dir
 
Speed
knots
Gust
knots
hPa Trend Height
m
Period
s
Dir
23/11:30pm 24.7 NE 6 8 1015.4 - 0.0 - - - - - - -
23/11:00pm 24.7 ENE 4 8 1015.5 - 0.0 - - - - - - -
23/10:30pm 24.9 NE 6 8 1015.6 - 0.0 - - - - - - -
23/10:00pm 25.2 NE 6 8 1015.5 - 0.0 - - - - - - -
23/09:30pm 25.4 NE 6 8 1015.3 - 0.0 - - - - - - -
23/09:00pm 25.3 NE 5 8 1015.1 - 0.0 - - - - - - -
23/08:30pm 25.6 NE 7 10 1015.0 - 0.0 - - - - - - -
23/08:00pm 25.9 NE 8 11 1014.8 - 0.0 - - - - - - -
23/07:30pm 26.0 NNE 8 11 1014.5 - 0.0 - - - - - - -
23/07:00pm 26.2 NNE 8 11 1014.3 - 0.0 - - - - - - -
23/06:30pm 26.3 NNE 10 14 1014.0 - 0.0 - - - - - - -
23/06:00pm 26.8 NE 10 15 1013.6 - 0.0 - - - - - - -
23/05:30pm 27.3 NNE 12 17 1013.2 - 0.0 - - - - - - -
23/05:00pm 27.9 NE 11 17 1013.0 - 0.0 - - - - - - -
23/04:30pm 28.3 NNE 13 18 1013.0 - 0.0 - - - - - - -
23/04:00pm 28.8 NE 13 16 1012.8 - 0.0 - - - - - - -
23/03:30pm 29.4 NE 12 17 1012.7 - 0.0 - - - - - - -
23/03:00pm 30.9 NE 11 15 1013.1 - 0.0 - - - - - - -
23/02:30pm 30.6 NNE 10 15 1013.5 - 0.0 - - - - - - -
23/02:00pm 30.6 NE 11 16 1013.7 - 0.0 - - - - - - -
23/01:30pm 31.1 NE 10 16 1014.2 - 0.0 - - - - - - -
23/01:00pm 30.9 NE 10 13 1014.6 - 0.0 - - - - - - -
23/12:30pm 30.6 NE 10 13 1014.9 - 0.0 - - - - - - -
23/12:00pm 30.6 NNE 10 13 1015.4 - 0.0 - - - - - - -
23/11:30am 30.3 NNE 9 13 1015.7 - 0.0 - - - - - - -
23/11:00am 30.1 NNE 9 13 1016.2 - 0.0 - - - - - - -
23/10:30am 30.4 NNE 9 12 1016.4 - 0.0 - - - - - - -
23/10:00am 29.6 NNE 9 12 1016.5 - 0.0 - - - - - - -
23/09:30am 29.1 NNE 8 12 1016.7 - 0.0 - - - - - - -
23/09:00am 28.8 NNE 9 12 1016.5 - 0.0 - - - - - - -
23/08:30am 28.7 NE 7 11 1016.4 - 0.0 - - - - - - -
23/08:00am 27.8 NNE 8 11 1016.2 - 0.0 - - - - - - -
23/07:30am 27.2 ENE 7 9 1016.1 - 0.0 - - - - - - -
23/07:00am 26.4 NE 6 9 1016.0 - 0.0 - - - - - - -
23/06:30am 26.0 NE 4 5 1015.6 - 0.0 - - - - - - -
23/06:00am 25.3 ENE 4 6 1015.3 - 0.0 - - - - - - -
23/05:30am 24.8 ENE 3 5 1014.8 - 0.0 - - - - - - -
23/05:00am 24.9 NE 5 7 1014.4 - 0.0 - - - - - - -
23/04:30am 24.9 NE 5 7 1014.1 - 0.0 - - - - - - -
23/04:00am 24.9 NE 5 7 1013.8 - 0.0 - - - - - - -
23/03:30am 25.2 NNE 7 9 1013.6 - 0.0 - - - - - - -
23/03:00am 25.2 NE 6 8 1013.7 - 0.0 - - - - - - -
23/02:30am 25.5 NNE 7 10 1013.8 - 0.0 - - - - - - -
23/02:00am 25.8 NNE 9 12 1013.9 - 0.0 - - - - - - -
23/01:30am 25.7 NNE 7 9 1013.9 - 0.0 - - - - - - -
23/01:00am 25.7 NE 10 13 1014.0 - 0.0 - - - - - - -
23/12:30am 25.8 NE 8 11 1014.2 - 0.0 - - - - - - -
23/12:00am 26.1 NNE 9 12 1014.4 - 0.0 - - - - - - -
 
Date/Time
EST
Temp

°C
Wind Pressure Rain
since 9am
mm
Weather Cloud Vis
km
Sea
Height
m
Swell
Dir
 
Speed
knots
Gust
knots
hPa Trend Height
m
Period
s
Dir
22/11:30pm 26.0 NNE 10 13 1014.7 - 0.0 - - - - - - -
22/11:00pm 25.9 NNE 8 10 1014.7 - 0.0 - - - - - - -
22/10:30pm 25.8 NE 7 10 1014.8 - 0.0 - - - - - - -
22/10:00pm 26.0 NNE 8 11 1014.8 - 0.0 - - - - - - -
22/09:30pm 25.8 NNE 7 10 1014.7 - 0.0 - - - - - - -
22/09:00pm 25.8 NNE 7 10 1014.6 - 0.0 - - - - - - -
22/08:30pm 26.0 NNE 7 10 1014.3 - 0.0 - - - - - - -
22/08:00pm 26.0 NNE 7 11 1013.9 - 0.0 - - - - - - -
22/07:30pm 26.2 NNE 7 10 1013.5 - 0.0 - - - - - - -
22/07:00pm 26.4 NNE 9 13 1013.0 - 0.0 - - - - - - -
22/06:30pm 26.7 NNE 9 13 1012.8 - 0.0 - - - - - - -
22/06:00pm 27.1 NNE 10 14 1012.4 - 0.0 - - - - - - -
22/05:30pm 28.1 NNE 11 15 1011.9 - 0.0 - - - - - - -
22/05:00pm 29.9 NNE 12 15 1011.5 - 0.0 - - - - - - -
22/04:30pm 30.6 NNE 10 15 1011.3 - 0.0 - - - - - - -
22/04:00pm 30.7 NNE 11 15 1011.2 - 0.0 - - - - - - -
22/03:30pm 30.8 NNE 11 15 1011.4 - 0.0 - - - - - - -
22/03:00pm 30.8 NE 12 16 1011.6 - 0.0 - - - - - - -
22/02:30pm 30.4 NE 12 16 1012.0 - 0.0 - - - - - - -
22/02:00pm 30.8 NNE 12 15 1012.4 - 0.0 - - - - - - -
22/01:30pm 31.2 NE 11 15 1013.1 - 0.0 - - - - - - -
22/01:00pm 30.8 NE 11 16 1013.5 - 0.0 - - - - - - -
22/12:30pm 31.0 NE 11 16 1013.9 - 0.0 - - - - - - -
22/12:00pm 30.6 NE 11 14 1014.3 - 0.0 - - - - - - -
22/11:30am 30.5 NNE 11 14 1014.6 - 0.0 - - - - - - -
22/11:00am 30.7 NE 11 13 1015.0 - 0.0 - - - - - - -
22/10:30am 30.2 NE 10 14 1015.3 - 0.0 - - - - - - -
22/10:00am 30.2 NE 10 14 1015.5 - 0.0 - - - - - - -
22/09:30am 30.1 NE 10 15 1015.5 - 0.0 - - - - - - -
22/09:00am 29.4 NNE 10 15 1015.5 - 0.0 - - - - - - -
22/08:30am 28.7 NNE 10 13 1015.6 - 0.0 - - - - - - -
22/08:00am 28.9 NNE 9 13 1015.5 - 0.0 - - - - - - -

Other Formats:

Comma delimited format used in spreadsheet applications
http://www.bom.gov.au/fwo/IDQ60701/IDQ60701.95369.axf

JavaScript Object Notation format (JSON) in row-major order
http://www.bom.gov.au/fwo/IDQ60701/IDQ60701.95369.json